Airfield :
LOGIN :

Register | Disclaimer

   EN    FR    IT 

 










Legend :    VFR   Marginal VFR   IFR   Intensive IFR   Very Intensive IFR
Visi :
Ceiling :
>= 8 km
>= 3000ft
5 to 8 km
1000 to 3000 ft
1500m to 5 km
500 to 1000 ft
800 to 1500m
200 to 500 ft
< 800m
< 200 ft
Symbols :   Thunderstorms  Fog  Heavy snow  Heavy precipitations  Wind > 20 kt
SIGMETs :     Misc.  Thunderstorms  Icing  Turbulence  Mountain Waves  Volcanic Ashes






- Airport Elevation : 935 ft


EBFS - Florennes

CURRENT METAR :
  • 281555Z 03013KT 9999 FEW250 19/03 Q1030 BLU BLU

EXPIRED METARs :
  • 281525Z 05011KT 9999 FEW250 20/02 Q1030 BLU BLU
  • 281455Z 04012KT 9999 FEW250 20/02 Q1030 BLU BLU
  • 281425Z 05014KT 9999 FEW250 20/02 Q1030 BLU BLU
  • 281355Z 03014KT 9999 FEW250 19/02 Q1030 BLU BLU
  • 281325Z 04012KT 9999 FEW150 20/03 Q1031 BLU BLU

TAF TAF EBFS
Valid from the 28 at 10:00 until the 28 at 19:00 UTC


280841Z 2810/2819 05010KT 9999 FEW250
PROB30
TEMPO 2810/2812 FEW025
PROB30
TEMPO 2810/2819 05010G20KT



MET'MAP, your aeronautical weather chart ! - Copyright ORBIFLY December 2007 - Disclaimer

ORBIFLY MET'MAP TEAM :

Programming & Development : Alexandra Zaïnal
Concept & original design : Baudouin d'Aumeries
Assistance for programming : Marc-Olivier Méhu
Technical & hardware support : Manuel Goepfert

Contact : metmap@orbifly.com




SOURCES & CREDITS :

   NOAA